Time;durP1;ratioP1;P1;durP2;ratioP2;P2;SDS_P1;SDS_P2;PMS_P1;PMS_P2;Temp;Humidity;BMP_temperature;BMP_pressure;BME280_temperature;BME280_humidity;BME280_pressure;Samples;Min_cycle;Max_cycle;Signal;HPM_P1;HPM_P2
2022/10/04 00:02:01;;;;;;;2.83;2.25;;;17.00;72.40;;;;;;5051790;28;20017;-77
2022/10/04 00:05:07;;;;;;;2.53;2.33;;;17.00;72.40;;;;;;5059380;28;20032;-75
2022/10/04 00:07:44;;;;;;;2.35;1.98;;;16.90;72.40;;;;;;5024194;28;20044;-74
2022/10/04 00:10:32;;;;;;;4.00;1.98;;;16.90;72.30;;;;;;5000563;28;20091;-75
2022/10/04 00:13:14;;;;;;;3.47;2.20;;;17.00;72.60;;;;;;5028617;28;20060;-76
2022/10/04 00:15:40;;;;;;;3.33;2.20;;;16.90;72.50;;;;;;5047832;28;20047;-76
2022/10/04 00:18:43;;;;;;;2.53;2.33;;;16.90;72.50;;;;;;5014915;28;20866;-75
2022/10/04 00:21:09;;;;;;;3.60;2.50;;;16.90;72.60;;;;;;5048329;28;20502;-75
2022/10/04 00:23:38;;;;;;;3.13;2.08;;;16.90;72.50;;;;;;5047343;28;20037;-75
2022/10/04 00:26:11;;;;;;;3.85;2.00;;;16.90;72.60;;;;;;5047134;28;20025;-76
2022/10/04 00:28:38;;;;;;;2.53;2.10;;;16.90;72.70;;;;;;5049171;28;20268;-75
2022/10/04 00:31:23;;;;;;;3.53;2.13;;;16.90;72.70;;;;;;5038047;28;20091;-77
2022/10/04 00:33:50;;;;;;;3.55;2.00;;;16.90;72.90;;;;;;5025082;28;20053;-76
2022/10/04 00:36:22;;;;;;;2.30;2.10;;;16.90;72.80;;;;;;5049351;28;20059;-76
2022/10/04 00:39:04;;;;;;;2.80;2.50;;;16.90;72.90;;;;;;5048313;28;20566;-75
2022/10/04 00:41:48;;;;;;;2.30;2.20;;;16.90;73.00;;;;;;5045109;28;20021;-75
2022/10/04 00:44:22;;;;;;;2.38;2.13;;;16.90;73.00;;;;;;5046882;28;20045;-76
2022/10/04 00:46:49;;;;;;;2.25;2.05;;;16.90;73.00;;;;;;5046381;28;21204;-75
2022/10/04 00:49:19;;;;;;;3.97;2.00;;;16.90;72.90;;;;;;5048782;28;20623;-75
2022/10/04 00:52:13;;;;;;;2.10;1.90;;;16.90;73.00;;;;;;5055163;28;20025;-76
2022/10/04 00:54:45;;;;;;;3.50;2.45;;;16.90;73.10;;;;;;5048295;28;20041;-74
2022/10/04 00:57:24;;;;;;;5.05;2.50;;;16.80;72.90;;;;;;5052065;28;20031;-75
2022/10/04 01:00:01;;;;;;;2.53;2.10;;;16.80;72.90;;;;;;5043225;28;20044;-74
2022/10/04 01:02:34;;;;;;;3.40;1.98;;;16.80;73.00;;;;;;5053798;28;20023;-75
2022/10/04 01:05:16;;;;;;;2.92;2.53;;;16.80;73.00;;;;;;5047155;28;20263;-75
2022/10/04 01:08:11;;;;;;;3.50;2.97;;;16.70;72.90;;;;;;5043276;28;20041;-76
2022/10/04 01:10:47;;;;;;;3.92;1.90;;;16.70;72.90;;;;;;5043821;28;20053;-76
2022/10/04 01:13:29;;;;;;;4.10;2.72;;;16.70;73.00;;;;;;5042636;28;20025;-76
2022/10/04 01:16:10;;;;;;;2.42;2.10;;;16.60;72.80;;;;;;5054273;28;20029;-76
2022/10/04 01:18:36;;;;;;;2.97;2.50;;;16.60;72.90;;;;;;5042595;28;20033;-76
2022/10/04 01:21:26;;;;;;;4.10;3.22;;;16.60;72.90;;;;;;5050551;28;20029;-75
2022/10/04 01:23:57;;;;;;;2.30;2.10;;;16.60;73.10;;;;;;5050874;28;20044;-75
2022/10/04 01:26:31;;;;;;;3.65;2.35;;;16.60;73.00;;;;;;5025783;28;20366;-76
2022/10/04 01:28:58;;;;;;;4.38;2.30;;;16.60;73.10;;;;;;5046848;28;20480;-75
2022/10/04 01:31:26;;;;;;;2.60;2.10;;;16.60;73.10;;;;;;5037594;28;20054;-75
2022/10/04 01:33:56;;;;;;;2.55;2.35;;;16.60;73.10;;;;;;5047439;28;20043;-75
2022/10/04 01:36:22;;;;;;;2.88;2.25;;;16.50;73.00;;;;;;5047475;28;20333;-75
2022/10/04 01:38:49;;;;;;;2.63;2.17;;;16.60;73.20;;;;;;5044809;28;20028;-77
2022/10/04 01:41:24;;;;;;;4.68;2.50;;;16.60;73.20;;;;;;5047637;28;20043;-76
2022/10/04 01:43:55;;;;;;;2.97;2.40;;;16.60;73.30;;;;;;5043115;28;20040;-76
2022/10/04 01:46:32;;;;;;;3.63;2.67;;;16.60;73.20;;;;;;5044598;28;20032;-75
2022/10/04 01:49:03;;;;;;;2.97;2.35;;;16.50;73.10;;;;;;5044574;28;20041;-76
2022/10/04 01:51:33;;;;;;;3.45;2.05;;;16.50;73.10;;;;;;5042692;28;20032;-76
2022/10/04 01:54:08;;;;;;;2.97;2.58;;;16.60;73.20;;;;;;5052399;28;20700;-75
2022/10/04 01:56:42;;;;;;;3.00;2.70;;;16.50;73.10;;;;;;5047170;28;20134;-76
2022/10/04 01:59:21;;;;;;;2.47;2.28;;;16.50;73.60;;;;;;5051223;28;20053;-76
2022/10/04 02:01:57;;;;;;;3.90;2.05;;;16.50;73.20;;;;;;5059151;28;20048;-76
2022/10/04 02:04:28;;;;;;;2.80;2.28;;;16.50;73.20;;;;;;5031363;28;20369;-76
2022/10/04 02:06:58;;;;;;;2.92;2.35;;;16.50;73.20;;;;;;5048473;28;20037;-75
2022/10/04 02:09:38;;;;;;;3.05;2.00;;;16.50;73.10;;;;;;5048951;28;20041;-76
2022/10/04 02:12:05;;;;;;;4.85;2.45;;;16.50;73.20;;;;;;5052295;28;20366;-75
2022/10/04 02:14:35;;;;;;;2.50;1.95;;;16.50;73.10;;;;;;5065122;28;20126;-76
2022/10/04 02:17:09;;;;;;;3.45;2.03;;;16.50;73.20;;;;;;5044080;28;20039;-75
2022/10/04 02:19:38;;;;;;;2.45;2.25;;;16.50;73.20;;;;;;5045492;28;20652;-76
2022/10/04 02:22:08;;;;;;;2.42;2.17;;;16.50;73.20;;;;;;5055362;28;20047;-76
2022/10/04 02:24:42;;;;;;;2.30;2.08;;;16.50;73.20;;;;;;5052002;28;20041;-75
2022/10/04 02:27:08;;;;;;;4.85;2.03;;;16.50;73.30;;;;;;5036642;28;20035;-76
2022/10/04 02:29:34;;;;;;;3.17;1.88;;;16.50;73.20;;;;;;5047741;28;20039;-76
2022/10/04 02:34:53;;;;;;;2.50;2.20;;;16.50;73.30;;;;;;5048432;28;20033;-76
2022/10/04 02:37:25;;;;;;;2.20;1.90;;;16.50;73.20;;;;;;5053141;28;20021;-77
2022/10/04 02:39:59;;;;;;;4.40;2.65;;;16.50;73.20;;;;;;5057681;28;20037;-77
2022/10/04 02:42:45;;;;;;;2.40;2.20;;;16.60;73.40;;;;;;5057815;28;20040;-76
2022/10/04 02:45:31;;;;;;;2.45;2.22;;;16.50;73.30;;;;;;5049591;28;20029;-76
2022/10/04 02:48:01;;;;;;;2.25;2.03;;;16.60;73.40;;;;;;5053525;28;20025;-76
2022/10/04 02:50:35;;;;;;;2.70;2.15;;;16.60;73.30;;;;;;5042570;28;20366;-76
2022/10/04 02:53:29;;;;;;;2.30;2.10;;;16.50;73.20;;;;;;5056131;28;20099;-75
2022/10/04 02:55:56;;;;;;;2.95;2.25;;;16.50;73.20;;;;;;5052025;28;20496;-76
2022/10/04 02:58:24;;;;;;;2.95;2.20;;;16.50;73.10;;;;;;5055788;28;20025;-75
2022/10/04 03:00:58;;;;;;;3.38;2.05;;;16.60;73.30;;;;;;5060714;28;20029;-76
2022/10/04 03:03:36;;;;;;;2.05;1.83;;;16.50;73.10;;;;;;5050228;28;20025;-76
2022/10/04 03:06:02;;;;;;;3.58;1.80;;;16.50;73.10;;;;;;5033197;28;20531;-76
2022/10/04 03:08:43;;;;;;;2.83;1.70;;;16.50;73.10;;;;;;5053032;28;20028;-75
2022/10/04 03:11:11;;;;;;;3.38;1.80;;;16.50;73.10;;;;;;5055224;28;20086;-76
2022/10/04 03:13:40;;;;;;;3.40;2.53;;;16.50;73.10;;;;;;5051632;28;20037;-76
2022/10/04 03:16:07;;;;;;;4.30;2.10;;;16.50;73.10;;;;;;5063159;28;20025;-76
2022/10/04 03:18:35;;;;;;;5.50;2.60;;;16.50;73.10;;;;;;5046535;28;20041;-76
2022/10/04 03:21:04;;;;;;;3.47;2.00;;;16.50;73.10;;;;;;5056927;28;20074;-76
2022/10/04 03:23:32;;;;;;;2.65;2.00;;;16.50;73.10;;;;;;5058565;28;20128;-75
2022/10/04 03:26:06;;;;;;;3.50;2.67;;;16.50;73.10;;;;;;5053353;28;20033;-76
2022/10/04 03:28:32;;;;;;;3.47;2.30;;;16.50;73.20;;;;;;5059243;28;20039;-76
2022/10/04 03:30:59;;;;;;;2.15;1.70;;;16.50;73.10;;;;;;5059907;28;20108;-77
2022/10/04 03:33:27;;;;;;;2.20;1.58;;;16.50;73.10;;;;;;5035650;28;20067;-75
2022/10/04 03:35:56;;;;;;;2.28;2.03;;;16.50;73.60;;;;;;5054453;28;20036;-76
2022/10/04 03:38:25;;;;;;;2.35;2.15;;;16.50;73.10;;;;;;5054948;28;20036;-75
2022/10/04 03:40:56;;;;;;;2.60;2.33;;;16.50;73.10;;;;;;5054589;28;20032;-76
2022/10/04 03:43:30;;;;;;;2.65;2.15;;;16.50;73.10;;;;;;5046429;28;20400;-75
2022/10/04 03:45:58;;;;;;;3.35;2.00;;;16.50;73.10;;;;;;5050319;28;20535;-76
2022/10/04 03:48:32;;;;;;;2.13;1.92;;;16.50;73.00;;;;;;5051003;28;20029;-75
2022/10/04 03:50:59;;;;;;;2.08;1.92;;;16.50;73.10;;;;;;5040968;28;20043;-78
2022/10/04 03:53:34;;;;;;;2.78;2.03;;;16.50;73.10;;;;;;5060381;28;20092;-76
2022/10/04 03:56:01;;;;;;;2.65;2.45;;;16.50;73.10;;;;;;5051125;28;20124;-75
2022/10/04 03:58:30;;;;;;;3.78;2.78;;;16.50;73.10;;;;;;5070139;28;20035;-75
2022/10/04 04:01:08;;;;;;;2.25;2.05;;;16.50;73.00;;;;;;5056186;28;20036;-75
2022/10/04 04:03:51;;;;;;;3.75;2.75;;;16.50;73.10;;;;;;5053348;28;20028;-75
2022/10/04 04:06:18;;;;;;;2.70;1.98;;;16.50;73.10;;;;;;5041210;28;20036;-77
2022/10/04 04:08:47;;;;;;;2.83;2.05;;;16.40;72.80;;;;;;5049782;28;20075;-75
2022/10/04 04:11:26;;;;;;;2.15;1.95;;;16.40;72.80;;;;;;5052761;28;20082;-75
2022/10/04 04:13:59;;;;;;;2.60;2.17;;;16.40;72.80;;;;;;5051144;28;20045;-76
2022/10/04 04:16:27;;;;;;;1.70;1.60;;;16.50;73.00;;;;;;5051674;28;20027;-75
2022/10/04 04:18:58;;;;;;;2.45;2.00;;;16.40;72.70;;;;;;5056960;28;20047;-76
2022/10/04 04:21:25;;;;;;;3.72;1.88;;;16.40;72.70;;;;;;5050639;28;20033;-75
2022/10/04 04:23:57;;;;;;;2.40;1.70;;;16.40;72.70;;;;;;5050554;28;20029;-75
2022/10/04 04:26:41;;;;;;;2.40;1.55;;;16.40;72.70;;;;;;5055456;28;20130;-75
2022/10/04 04:29:11;;;;;;;2.13;1.60;;;16.40;72.60;;;;;;5049057;28;20033;-76
2022/10/04 04:31:59;;;;;;;1.73;1.48;;;16.40;72.60;;;;;;5053544;28;20043;-75
2022/10/04 04:34:33;;;;;;;3.75;1.58;;;16.40;72.60;;;;;;5014639;28;20504;-74
2022/10/04 04:37:03;;;;;;;2.63;1.83;;;16.40;72.50;;;;;;5027895;28;20420;-75
2022/10/04 04:39:39;;;;;;;1.40;1.30;;;16.40;72.50;;;;;;5059054;28;20046;-76
2022/10/04 04:42:20;;;;;;;2.00;1.75;;;16.40;72.50;;;;;;5051758;28;20028;-76
2022/10/04 04:44:52;;;;;;;1.35;1.25;;;16.40;72.50;;;;;;5049780;28;20032;-75
2022/10/04 04:47:34;;;;;;;2.75;1.55;;;16.40;72.50;;;;;;5041491;28;20029;-76
2022/10/04 04:50:16;;;;;;;1.48;1.38;;;16.40;72.50;;;;;;5045371;28;20025;-75
2022/10/04 04:52:50;;;;;;;1.88;1.30;;;16.40;72.50;;;;;;5049670;28;20036;-76
2022/10/04 04:55:37;;;;;;;1.58;1.30;;;16.40;72.40;;;;;;5045801;28;20053;-76
2022/10/04 04:58:04;;;;;;;1.95;1.67;;;16.40;72.40;;;;;;5048236;28;20491;-76
2022/10/04 05:00:40;;;;;;;2.78;1.35;;;16.40;72.30;;;;;;5049612;28;20059;-75
2022/10/04 05:03:17;;;;;;;1.20;1.08;;;16.40;72.40;;;;;;5045878;28;20099;-75
2022/10/04 05:05:46;;;;;;;1.33;1.23;;;16.40;72.40;;;;;;5043879;28;20032;-75
2022/10/04 05:08:25;;;;;;;1.63;1.15;;;16.40;72.30;;;;;;5033167;28;20035;-76
2022/10/04 05:10:57;;;;;;;1.58;1.20;;;16.40;72.30;;;;;;5048803;28;20220;-75
2022/10/04 05:13:40;;;;;;;1.40;1.30;;;16.40;72.30;;;;;;5052868;28;20036;-76
2022/10/04 05:16:12;;;;;;;1.58;1.15;;;16.40;72.30;;;;;;5047579;28;20071;-74
2022/10/04 05:18:40;;;;;;;2.45;1.42;;;16.40;72.30;;;;;;5052289;28;20036;-75
2022/10/04 05:21:13;;;;;;;1.70;1.20;;;16.40;72.30;;;;;;5042283;28;20040;-75
2022/10/04 05:23:38;;;;;;;1.65;1.20;;;16.40;72.40;;;;;;5008975;28;20483;-76
2022/10/04 05:26:10;;;;;;;2.33;1.20;;;16.40;72.30;;;;;;5043017;28;20084;-75
2022/10/04 05:28:36;;;;;;;3.40;1.20;;;16.40;72.30;;;;;;5055975;28;20547;-78
2022/10/04 05:31:17;;;;;;;1.58;1.20;;;16.40;72.20;;;;;;5046636;28;20028;-75
2022/10/04 05:33:49;;;;;;;1.27;1.00;;;16.50;72.40;;;;;;5044940;28;20040;-78
2022/10/04 05:36:35;;;;;;;2.05;1.52;;;16.40;72.20;;;;;;5053191;28;20033;-78
2022/10/04 05:39:25;;;;;;;1.30;1.20;;;16.40;72.20;;;;;;5051293;28;20038;-77
2022/10/04 05:42:25;;;;;;;1.65;1.30;;;16.40;72.10;;;;;;5032927;28;20036;-82
2022/10/04 05:44:55;;;;;;;2.80;1.30;;;16.50;72.30;;;;;;5019348;28;20033;-80
2022/10/04 05:47:26;;;;;;;2.28;1.85;;;16.50;72.30;;;;;;5048546;28;20037;-79
2022/10/04 05:49:56;;;;;;;1.80;1.33;;;16.50;72.30;;;;;;5046859;28;20108;-75
2022/10/04 05:52:37;;;;;;;2.40;2.20;;;16.50;72.40;;;;;;5045393;28;20056;-74
2022/10/04 05:55:25;;;;;;;3.80;1.58;;;16.50;72.40;;;;;;5045177;28;20055;-78
2022/10/04 05:57:59;;;;;;;2.30;1.60;;;16.50;72.40;;;;;;5050871;28;20066;-78
2022/10/04 06:00:56;;;;;;;1.92;1.65;;;16.50;72.40;;;;;;5049070;28;20105;-79
2022/10/04 06:03:37;;;;;;;2.65;1.77;;;16.50;72.40;;;;;;5045488;28;20033;-77
2022/10/04 06:06:36;;;;;;;3.30;1.73;;;16.50;72.30;;;;;;5051714;28;20036;-77
2022/10/04 06:09:26;;;;;;;2.42;2.13;;;16.50;72.40;;;;;;5048583;28;20028;-76
2022/10/04 06:12:04;;;;;;;2.95;1.73;;;16.40;72.20;;;;;;5046121;28;20041;-77
2022/10/04 06:14:58;;;;;;;2.45;1.88;;;16.40;72.20;;;;;;5054122;28;20409;-75
2022/10/04 06:17:32;;;;;;;3.65;1.67;;;16.50;72.50;;;;;;5051623;28;20021;-78
2022/10/04 06:20:20;;;;;;;2.58;1.50;;;16.40;72.30;;;;;;5046814;28;20063;-77
2022/10/04 06:22:56;;;;;;;4.05;2.10;;;16.40;72.30;;;;;;5050839;28;20037;-75
2022/10/04 06:25:31;;;;;;;2.38;2.17;;;16.40;72.30;;;;;;5052386;28;20021;-76
2022/10/04 06:28:16;;;;;;;2.30;2.20;;;16.40;72.30;;;;;;5048673;28;20056;-77
2022/10/04 06:31:12;;;;;;;2.38;2.17;;;16.40;72.40;;;;;;5050828;28;20032;-76
2022/10/04 06:33:53;;;;;;;2.15;1.95;;;16.40;72.40;;;;;;5052278;28;20049;-78
2022/10/04 06:36:44;;;;;;;2.63;2.42;;;16.40;72.40;;;;;;5053979;28;20035;-76
2022/10/04 06:39:24;;;;;;;3.20;2.47;;;16.40;72.40;;;;;;5052146;28;20098;-76
2022/10/04 06:42:04;;;;;;;2.60;2.40;;;16.40;72.50;;;;;;5047547;28;20031;-75
2022/10/04 06:45:12;;;;;;;3.45;2.88;;;16.30;72.80;;;;;;5030778;28;20033;-77
2022/10/04 06:47:48;;;;;;;3.53;2.70;;;16.40;72.60;;;;;;5032053;28;20079;-76
2022/10/04 06:50:55;;;;;;;4.07;2.30;;;16.40;72.50;;;;;;5044143;28;20026;-77
2022/10/04 06:53:27;;;;;;;2.83;2.47;;;16.40;72.60;;;;;;5045944;28;20049;-75
2022/10/04 06:56:04;;;;;;;3.03;2.75;;;16.40;72.50;;;;;;5057874;28;20045;-78
2022/10/04 06:58:52;;;;;;;3.55;2.30;;;16.50;72.70;;;;;;5051305;28;20029;-75
2022/10/04 07:01:33;;;;;;;4.70;2.80;;;16.50;72.60;;;;;;5048889;28;20017;-76
2022/10/04 07:04:22;;;;;;;2.90;2.50;;;16.60;72.80;;;;;;5052079;28;20519;-76
2022/10/04 07:07:22;;;;;;;3.13;2.60;;;16.60;72.80;;;;;;5048858;28;20021;-76
2022/10/04 07:09:47;;;;;;;3.53;2.53;;;16.60;72.80;;;;;;5046015;28;20051;-75
2022/10/04 07:12:16;;;;;;;3.03;2.20;;;16.60;72.70;;;;;;5046068;28;20388;-79
2022/10/04 07:14:50;;;;;;;4.97;2.55;;;16.70;72.90;;;;;;5049909;28;20021;-76
2022/10/04 07:17:26;;;;;;;3.22;2.30;;;16.70;72.90;;;;;;5040501;28;20043;-77
2022/10/04 07:19:56;;;;;;;2.55;1.95;;;16.60;72.80;;;;;;5053652;28;20032;-80
2022/10/04 07:22:35;;;;;;;3.03;2.50;;;16.60;72.80;;;;;;5040867;28;20017;-77
2022/10/04 07:25:16;;;;;;;2.35;2.17;;;16.60;72.90;;;;;;5033013;28;20039;-76
2022/10/04 07:31:24;;;;;;;3.92;2.08;;;16.60;72.90;;;;;;5045986;28;20029;-76
2022/10/04 07:34:02;;;;;;;2.80;2.15;;;16.60;72.90;;;;;;5046466;28;20037;-77
2022/10/04 07:36:38;;;;;;;4.28;3.00;;;16.60;72.90;;;;;;5052132;28;20025;-76
2022/10/04 07:39:17;;;;;;;2.55;2.22;;;16.60;73.00;;;;;;5051331;28;20309;-75
2022/10/04 07:42:13;;;;;;;7.70;2.80;;;16.70;73.20;;;;;;5030146;28;20036;-76
2022/10/04 07:44:47;;;;;;;3.22;2.20;;;16.70;73.30;;;;;;5054785;28;20580;-78
2022/10/04 07:47:26;;;;;;;4.28;2.80;;;16.70;73.30;;;;;;5060164;28;20017;-77
2022/10/04 07:49:53;;;;;;;4.20;2.90;;;16.70;73.30;;;;;;5055321;28;20037;-77
2022/10/04 07:52:47;;;;;;;3.88;2.40;;;16.70;73.30;;;;;;5048607;28;20124;-76
2022/10/04 07:55:52;;;;;;;2.40;2.10;;;16.80;73.50;;;;;;5052552;28;20206;-76
2022/10/04 07:58:26;;;;;;;3.15;2.58;;;16.90;73.50;;;;;;5047497;28;20049;-77
2022/10/04 08:00:55;;;;;;;2.45;2.22;;;17.00;73.40;;;;;;5056416;28;20555;-77
2022/10/04 08:03:56;;;;;;;2.78;2.22;;;17.10;73.50;;;;;;5055687;28;20041;-76
2022/10/04 08:06:31;;;;;;;2.30;2.10;;;17.20;73.50;;;;;;5055976;28;20521;-76
2022/10/04 08:09:19;;;;;;;2.40;1.90;;;17.40;73.50;;;;;;5059175;28;20025;-79
2022/10/04 08:12:22;;;;;;;2.35;2.00;;;17.50;73.50;;;;;;5051167;28;20447;-77
2022/10/04 08:15:27;;;;;;;3.20;2.13;;;17.60;73.30;;;;;;5049264;28;20047;-81
2022/10/04 08:17:56;;;;;;;1.80;1.63;;;17.70;73.30;;;;;;5044192;28;20033;-77
2022/10/04 08:20:38;;;;;;;1.67;1.58;;;17.80;73.20;;;;;;5011638;28;20110;-77
2022/10/04 08:23:19;;;;;;;2.15;1.92;;;18.00;73.50;;;;;;5049801;28;20041;-77
2022/10/04 08:26:15;;;;;;;2.38;1.73;;;18.00;73.30;;;;;;5032601;28;20036;-76
2022/10/04 08:31:51;;;;;;;2.22;1.60;;;18.20;73.20;;;;;;5044630;28;20035;-75
2022/10/04 08:34:20;;;;;;;2.92;1.40;;;18.30;73.10;;;;;;5028304;28;20118;-75
2022/10/04 08:37:02;;;;;;;1.45;1.00;;;18.30;73.00;;;;;;5045936;28;20029;-74
2022/10/04 08:40:10;;;;;;;2.22;1.20;;;18.40;73.20;;;;;;5044553;28;20036;-74
2022/10/04 08:42:49;;;;;;;0.93;0.93;;;18.40;73.10;;;;;;5041515;28;20041;-74
2022/10/04 08:45:42;;;;;;;1.27;1.17;;;18.60;73.30;;;;;;5052473;28;20037;-74
2022/10/04 08:48:27;;;;;;;1.63;1.20;;;18.80;73.20;;;;;;5045165;28;20043;-74
2022/10/04 08:51:26;;;;;;;1.10;0.60;;;19.00;73.10;;;;;;5042132;28;20037;-75
2022/10/04 08:54:26;;;;;;;3.03;1.08;;;19.20;72.90;;;;;;5046560;28;20380;-75
2022/10/04 08:57:14;;;;;;;2.50;1.10;;;19.30;72.60;;;;;;5024709;28;20025;-77
2022/10/04 09:00:00;;;;;;;2.53;0.80;;;19.50;72.50;;;;;;5044820;28;20041;-77
2022/10/04 09:02:45;;;;;;;0.80;0.50;;;19.60;72.30;;;;;;5051483;28;20033;-78
2022/10/04 09:05:57;;;;;;;1.35;0.80;;;19.70;72.30;;;;;;5029370;28;20039;-78
2022/10/04 09:08:34;;;;;;;1.60;0.90;;;19.80;72.20;;;;;;5045891;28;20104;-76
2022/10/04 09:11:40;;;;;;;1.10;0.70;;;20.00;72.20;;;;;;5041849;28;20059;-77
2022/10/04 09:14:45;;;;;;;1.75;0.90;;;20.20;72.10;;;;;;5049144;28;20123;-78
2022/10/04 09:17:38;;;;;;;1.02;0.77;;;20.40;71.90;;;;;;5044271;28;20036;-78
2022/10/04 09:20:07;;;;;;;0.82;0.75;;;20.40;71.70;;;;;;5040004;28;20334;-77
2022/10/04 09:23:05;;;;;;;1.83;0.60;;;20.50;71.70;;;;;;5048662;28;20274;-77
2022/10/04 09:25:40;;;;;;;2.22;1.17;;;20.60;71.60;;;;;;5029973;28;20041;-78
2022/10/04 09:28:23;;;;;;;2.83;1.02;;;20.70;71.60;;;;;;5045366;28;20047;-81
2022/10/04 09:31:28;;;;;;;0.80;0.60;;;20.90;71.50;;;;;;5034562;28;20044;-80
2022/10/04 09:34:09;;;;;;;4.45;1.70;;;21.00;71.30;;;;;;5043484;28;20110;-78
2022/10/04 09:36:39;;;;;;;2.05;1.23;;;21.20;71.30;;;;;;5048740;28;20098;-80
2022/10/04 09:39:14;;;;;;;2.63;1.65;;;21.30;71.40;;;;;;5047195;28;20029;-78
2022/10/04 09:42:21;;;;;;;2.17;1.08;;;21.30;71.10;;;;;;5045699;28;20071;-80
2022/10/04 09:45:26;;;;;;;3.03;1.23;;;21.50;71.20;;;;;;5048904;28;20025;-79
2022/10/04 09:48:24;;;;;;;1.80;1.00;;;21.50;71.20;;;;;;5044176;28;20044;-80
2022/10/04 09:51:12;;;;;;;1.48;1.20;;;21.50;71.20;;;;;;5043113;28;20079;-81
2022/10/04 09:54:05;;;;;;;3.10;1.27;;;21.50;71.00;;;;;;5051488;28;20045;-80
2022/10/04 09:57:00;;;;;;;3.67;1.33;;;21.50;70.90;;;;;;5040444;28;20033;-81
2022/10/04 09:59:56;;;;;;;0.98;0.90;;;21.50;70.90;;;;;;5049892;28;20124;-81
2022/10/04 10:03:01;;;;;;;0.95;0.65;;;21.60;70.90;;;;;;5047877;28;20059;-80
2022/10/04 10:05:49;;;;;;;1.15;1.05;;;21.80;71.00;;;;;;5041592;28;20545;-79
2022/10/04 10:08:24;;;;;;;0.80;0.60;;;22.00;70.80;;;;;;5053955;28;20407;-81
2022/10/04 10:14:17;;;;;;;2.88;1.13;;;22.40;70.50;;;;;;5024979;28;20041;-81
2022/10/04 10:17:13;;;;;;;2.00;0.80;;;22.70;70.30;;;;;;5039842;28;20441;-83
2022/10/04 10:20:10;;;;;;;1.05;0.90;;;22.90;69.90;;;;;;5026890;28;20033;-83
2022/10/04 10:22:51;;;;;;;1.20;0.77;;;23.00;69.60;;;;;;5027344;28;20109;-85
2022/10/04 10:25:51;;;;;;;2.05;0.98;;;23.20;69.50;;;;;;5046183;28;20082;-78
2022/10/04 10:28:35;;;;;;;2.50;1.02;;;23.20;69.20;;;;;;5043151;28;20023;-81
2022/10/04 10:31:07;;;;;;;1.73;0.60;;;23.20;68.90;;;;;;5044131;28;20048;-79
2022/10/04 10:33:57;;;;;;;1.13;0.70;;;23.30;69.00;;;;;;5046301;28;20067;-78
2022/10/04 10:36:43;;;;;;;0.57;0.40;;;23.20;68.40;;;;;;5039816;28;20021;-81
2022/10/04 10:40:00;;;;;;;2.60;0.80;;;23.20;68.30;;;;;;5047287;28;20037;-82
2022/10/04 10:42:44;;;;;;;3.22;0.95;;;23.30;68.30;;;;;;5014829;28;20376;-78
2022/10/04 10:45:14;;;;;;;1.65;0.70;;;23.20;68.10;;;;;;5049052;28;20041;-77
2022/10/04 10:47:58;;;;;;;1.35;0.60;;;23.20;68.20;;;;;;5049314;28;20459;-83
2022/10/04 10:50:58;;;;;;;2.45;0.70;;;23.10;67.80;;;;;;5028626;28;20037;-78
2022/10/04 10:54:04;;;;;;;1.25;0.80;;;23.10;67.90;;;;;;5050263;28;20033;-81
2022/10/04 10:56:51;;;;;;;3.03;1.10;;;23.20;67.80;;;;;;5050492;28;20044;-81
2022/10/04 11:00:13;;;;;;;2.35;1.13;;;23.20;68.40;;;;;;5052047;28;20435;-82
2022/10/04 11:02:54;;;;;;;1.30;0.60;;;23.20;67.80;;;;;;5007597;28;20046;-85
2022/10/04 11:06:00;;;;;;;1.67;0.88;;;23.20;67.80;;;;;;5055322;28;20045;-83
2022/10/04 11:08:58;;;;;;;3.22;0.95;;;23.10;67.20;;;;;;5036707;28;20043;-78
2022/10/04 11:12:10;;;;;;;1.95;0.50;;;23.00;66.90;;;;;;5032463;28;20028;-77
2022/10/04 11:15:13;;;;;;;2.05;0.60;;;22.90;66.80;;;;;;5050242;28;20049;-77
2022/10/04 11:18:11;;;;;;;2.50;0.55;;;22.70;66.50;;;;;;5053881;28;20028;-79
2022/10/04 11:20:53;;;;;;;1.65;0.77;;;22.50;66.30;;;;;;5049888;28;20428;-78
2022/10/04 11:23:37;;;;;;;1.50;0.90;;;22.40;66.40;;;;;;5045066;28;20033;-79
2022/10/04 11:26:32;;;;;;;1.73;0.68;;;22.30;66.20;;;;;;5053377;28;20116;-79
2022/10/04 11:29:19;;;;;;;1.73;0.75;;;22.30;66.20;;;;;;5046520;28;20029;-82
2022/10/04 11:32:00;;;;;;;0.40;0.40;;;22.30;66.20;;;;;;5048956;28;20037;-79
2022/10/04 11:34:46;;;;;;;1.73;0.53;;;22.40;66.30;;;;;;5050552;28;20106;-81
2022/10/04 11:37:27;;;;;;;1.00;0.40;;;22.40;66.10;;;;;;5040730;28;20997;-89
2022/10/04 11:40:15;;;;;;;4.97;0.55;;;22.50;66.10;;;;;;5050346;28;20043;-80
2022/10/04 11:43:08;;;;;;;1.17;0.50;;;22.50;65.80;;;;;;5047326;28;20032;-77
2022/10/04 11:45:37;;;;;;;1.42;0.73;;;22.50;65.90;;;;;;5056903;28;20033;-77
2022/10/04 11:48:41;;;;;;;0.43;0.40;;;22.50;65.80;;;;;;5047962;28;20348;-81
2022/10/04 11:51:27;;;;;;;2.40;0.55;;;22.70;65.70;;;;;;5038732;28;20044;-80
2022/10/04 11:54:30;;;;;;;1.52;0.70;;;22.70;65.50;;;;;;5066840;28;20083;-79
2022/10/04 11:57:03;;;;;;;;;;;22.80;65.30;;;;;;5069916;28;20059;-79
2022/10/04 12:00:00;;;;;;;0.93;0.50;;;22.80;66.10;;;;;;5070313;28;19961;-79
2022/10/04 12:03:09;;;;;;;1.23;0.55;;;22.80;65.30;;;;;;5065244;28;20350;-79
2022/10/04 12:05:49;;;;;;;4.68;1.27;;;22.80;65.20;;;;;;5062750;28;20528;-80
2022/10/04 12:08:33;;;;;;;1.65;0.80;;;22.90;65.30;;;;;;5055278;28;20456;-83
2022/10/04 12:11:14;;;;;;;2.78;0.98;;;23.10;65.40;;;;;;5062668;28;20048;-79
2022/10/04 12:14:20;;;;;;;1.20;0.70;;;23.20;65.00;;;;;;5058101;28;20049;-78
2022/10/04 12:17:17;;;;;;;1.63;0.90;;;23.20;64.70;;;;;;5054493;28;20389;-78
2022/10/04 12:20:14;;;;;;;2.17;0.70;;;23.30;64.60;;;;;;5041732;28;20025;-78
2022/10/04 12:22:49;;;;;;;1.40;0.70;;;23.30;64.60;;;;;;5033815;28;20028;-79
2022/10/04 12:25:30;;;;;;;1.30;0.60;;;23.40;64.60;;;;;;5053308;28;20488;-77
2022/10/04 12:28:10;;;;;;;0.93;0.63;;;23.40;64.50;;;;;;5035890;28;20128;-77
2022/10/04 12:30:52;;;;;;;1.90;0.55;;;23.50;64.60;;;;;;5042816;28;20022;-78
2022/10/04 12:33:36;;;;;;;1.13;0.65;;;23.40;64.10;;;;;;5050659;28;20132;-78
2022/10/04 12:36:13;;;;;;;1.98;0.88;;;23.50;64.10;;;;;;5051569;28;20152;-77
2022/10/04 12:38:50;;;;;;;3.35;1.05;;;23.40;64.20;;;;;;5055493;28;20056;-80
2022/10/04 12:41:38;;;;;;;1.70;0.60;;;23.40;64.00;;;;;;5050695;28;20369;-81
2022/10/04 12:44:23;;;;;;;1.77;0.55;;;23.40;63.90;;;;;;5052861;28;20040;-79
2022/10/04 12:47:19;;;;;;;2.45;1.13;;;23.40;64.50;;;;;;5043958;28;20037;-79
2022/10/04 12:50:26;;;;;;;5.03;1.10;;;23.40;64.10;;;;;;5045000;28;20041;-79
2022/10/04 12:53:18;;;;;;;5.13;1.38;;;23.50;64.10;;;;;;5031726;28;20064;-80
2022/10/04 12:56:08;;;;;;;2.58;0.80;;;23.60;64.20;;;;;;5045259;28;20075;-79
2022/10/04 12:58:57;;;;;;;2.95;0.80;;;23.60;64.10;;;;;;5030764;28;20036;-82
2022/10/04 13:02:00;;;;;;;1.80;0.80;;;23.60;63.80;;;;;;5039503;28;20029;-83
2022/10/04 13:04:51;;;;;;;2.17;0.80;;;23.70;63.80;;;;;;5024907;28;20032;-83
2022/10/04 13:07:50;;;;;;;3.13;1.00;;;23.70;63.70;;;;;;5045618;28;20031;-83
2022/10/04 13:10:28;;;;;;;3.08;0.90;;;23.60;63.60;;;;;;5054620;28;20047;-82
2022/10/04 13:13:29;;;;;;;3.95;0.95;;;23.50;63.70;;;;;;5050135;28;20040;-81
2022/10/04 13:16:21;;;;;;;2.97;1.05;;;23.50;63.60;;;;;;5043662;28;20032;-83
2022/10/04 13:19:08;;;;;;;3.00;1.10;;;23.40;63.70;;;;;;5047691;28;20045;-79
2022/10/04 13:21:40;;;;;;;3.03;1.13;;;23.30;63.70;;;;;;5046360;28;20407;-78
2022/10/04 13:24:27;;;;;;;3.42;0.73;;;23.30;63.70;;;;;;5043704;28;20035;-78
2022/10/04 13:27:17;;;;;;;1.00;0.63;;;23.30;63.70;;;;;;5047995;28;20044;-79
2022/10/04 13:30:12;;;;;;;1.70;0.80;;;23.20;63.60;;;;;;5056504;28;20059;-80
2022/10/04 13:32:57;;;;;;;3.10;1.05;;;23.20;63.70;;;;;;5042231;28;20033;-78
2022/10/04 13:35:35;;;;;;;3.50;1.20;;;23.10;63.60;;;;;;5031031;28;20329;-80
2022/10/04 13:38:27;;;;;;;3.13;0.88;;;23.00;63.60;;;;;;5048891;28;20055;-81
2022/10/04 13:41:30;;;;;;;2.53;1.08;;;23.00;63.80;;;;;;5050813;28;20117;-79
2022/10/04 13:44:30;;;;;;;12.00;1.60;;;23.00;63.90;;;;;;5046113;28;20041;-81
2022/10/04 13:47:30;;;;;;;5.28;1.02;;;23.00;63.90;;;;;;5043271;28;20044;-88
2022/10/04 13:50:25;;;;;;;3.28;0.82;;;23.10;64.00;;;;;;5036678;28;20028;-75
2022/10/04 13:56:36;;;;;;;4.50;1.20;;;23.40;64.00;;;;;;5048732;28;20063;-83
2022/10/04 13:59:22;;;;;;;2.00;0.93;;;23.50;63.90;;;;;;5044670;28;20066;-83
2022/10/04 14:02:20;;;;;;;4.00;1.60;;;23.50;63.80;;;;;;5055950;28;20028;-82
2022/10/04 14:05:10;;;;;;;4.75;1.30;;;23.40;63.60;;;;;;5037621;28;20052;-80
2022/10/04 14:07:55;;;;;;;2.70;0.73;;;23.30;63.60;;;;;;5048801;28;20387;-79
2022/10/04 14:10:37;;;;;;;2.30;1.15;;;23.20;63.70;;;;;;5051264;28;20027;-80
2022/10/04 14:14:01;;;;;;;3.85;1.48;;;23.00;63.70;;;;;;5045704;28;20083;-81
2022/10/04 14:17:00;;;;;;;5.17;1.07;;;22.90;63.90;;;;;;5017575;28;20052;-81
2022/10/04 14:19:38;;;;;;;2.40;1.60;;;22.70;63.90;;;;;;5018012;28;20033;-88
2022/10/04 14:22:16;;;;;;;6.80;1.25;;;22.70;64.10;;;;;;5030455;28;20034;-83